Flugplatz Gunzenhausen-Reutberg

Für EDMH sind keine METAR/TAF Berichte vorhanden.
Es werden die Flugwettermeldungen vom Flugplatz Ansbach Army Heliport in 24 km Entfernung angezeigt.

Bericht für ETEB

vom 23.08. um 13:44 UTC

Wind 6 kt aus 70°

Sichtweite 10 km oder mehr

keine Wolken

Temperatur 24.0°C

Taupunkt 13.0°C

Luftfeuchtigkeit 50%

Luftdruck 1025 hPa

ETEB 231344Z AUTO 07006KT 9999 CLR 24/13 A3027 RMK AO2 RAB13E44 SLP251 $

Prognose für ETEB

vom 23.08. um 00:00 UTC

Zwischen 00:00 UTC und 00:00 UTC

Wind 12 kt aus 70°

Sichtweite 10 km oder mehr

keine Wolken


Zwischen 00:00 und 00:00 UTC übergehend zu

variable Windrichtung mit 6 kt

Sichtweite 10 km oder mehr

keine Wolken


Am 24.08. zwischen 00:00 und 00:00 UTC übergehend zu

Wind 9 kt aus 60°

Sichtweite 10 km oder mehr

aufgebrochene Bewölkung in 3000 ft

TAF ETEB 231300Z 2313/2419 07012KT 9999 SKC QNH3020INS BECMG 2318/2319 VRB06KT 9999 SKC QNH3021INS BECMG 2406/2407 06009KT 9999 BKN030 QNH3019INS TX23/2313Z TN11/2403Z LAST NO AMDS AFT 2316 NEXT 2604
Impressum